Time;durP1;ratioP1;P1;durP2;ratioP2;P2;SDS_P1;SDS_P2;PMS_P1;PMS_P2;Temp;Humidity;BMP_temperature;BMP_pressure;BME280_temperature;BME280_humidity;BME280_pressure;Samples;Min_cycle;Max_cycle;Signal;HPM_P1;HPM_P2
2023/07/16 00:02:07;;;;;;;9.55;2.53;;;18.00;99.90;;;;;;6301753;22;20022;-83
2023/07/16 00:04:33;;;;;;;9.70;2.33;;;17.90;99.90;;;;;;6274754;22;20019;-83
2023/07/16 00:07:02;;;;;;;9.68;2.58;;;17.90;99.90;;;;;;6273707;22;20050;-83
2023/07/16 00:09:28;;;;;;;7.50;1.90;;;17.90;99.90;;;;;;6275439;22;20030;-83
2023/07/16 00:11:54;;;;;;;9.57;2.20;;;17.90;99.90;;;;;;6275683;22;20062;-83
2023/07/16 00:14:20;;;;;;;12.57;2.65;;;17.90;99.90;;;;;;6302063;22;20034;-83
2023/07/16 00:16:45;;;;;;;10.75;2.38;;;17.90;99.90;;;;;;6247449;22;20008;-83
2023/07/16 00:19:11;;;;;;;9.40;2.28;;;17.80;99.90;;;;;;6273581;22;20037;-82
2023/07/16 00:21:38;;;;;;;8.30;2.15;;;17.80;99.90;;;;;;6275682;22;20099;-83
2023/07/16 00:24:04;;;;;;;9.90;2.42;;;17.80;99.90;;;;;;6251962;22;20011;-83
2023/07/16 00:26:30;;;;;;;11.13;3.08;;;17.80;99.90;;;;;;6276793;22;20131;-84
2023/07/16 00:28:56;;;;;;;9.07;2.53;;;17.70;99.90;;;;;;6305205;22;20011;-83
2023/07/16 00:31:22;;;;;;;8.10;2.30;;;17.60;99.90;;;;;;6277947;22;20333;-83
2023/07/16 00:33:47;;;;;;;8.45;2.30;;;17.60;99.90;;;;;;6305457;22;20457;-83
2023/07/16 00:36:13;;;;;;;11.82;2.08;;;17.60;99.90;;;;;;6303627;22;20015;-84
2023/07/16 00:38:40;;;;;;;9.40;1.80;;;17.60;99.90;;;;;;6276268;22;20015;-83
2023/07/16 00:41:05;;;;;;;10.43;2.17;;;17.60;99.90;;;;;;6275417;22;20046;-82
2023/07/16 00:43:31;;;;;;;8.50;2.15;;;17.60;99.90;;;;;;6275618;22;20004;-83
2023/07/16 00:45:57;;;;;;;8.15;2.13;;;17.50;99.90;;;;;;6304553;22;20007;-83
2023/07/16 00:48:23;;;;;;;7.85;2.53;;;17.50;99.90;;;;;;6302323;22;20004;-82
2023/07/16 00:50:52;;;;;;;8.75;2.05;;;17.50;99.90;;;;;;6273533;22;20031;-83
2023/07/16 00:53:18;;;;;;;10.82;2.67;;;17.40;99.90;;;;;;6247740;22;20435;-83
2023/07/16 00:55:45;;;;;;;8.88;3.28;;;17.40;99.90;;;;;;6301460;22;20335;-83
2023/07/16 00:58:10;;;;;;;8.07;2.15;;;17.40;99.90;;;;;;6273443;22;20042;-83
2023/07/16 01:00:37;;;;;;;10.65;2.40;;;17.40;99.90;;;;;;6274641;22;20012;-83
2023/07/16 01:03:08;;;;;;;9.73;2.45;;;17.40;99.90;;;;;;6301333;22;20058;-83
2023/07/16 01:05:53;;;;;;;10.73;2.53;;;17.50;99.90;;;;;;6274651;22;20015;-84
2023/07/16 01:08:30;;;;;;;9.73;2.63;;;17.50;99.90;;;;;;6305056;22;20061;-83
2023/07/16 01:10:57;;;;;;;9.45;2.35;;;17.50;99.90;;;;;;6277052;22;20019;-83
2023/07/16 01:13:23;;;;;;;9.07;2.47;;;17.50;99.90;;;;;;6275576;22;20015;-83
2023/07/16 01:15:49;;;;;;;12.02;3.20;;;17.40;99.90;;;;;;6276523;22;20011;-83
2023/07/16 01:18:14;;;;;;;8.90;2.50;;;17.40;99.90;;;;;;6276289;22;20079;-83
2023/07/16 01:20:40;;;;;;;12.85;3.00;;;17.40;99.90;;;;;;6276516;22;20022;-82
2023/07/16 01:23:27;;;;;;;10.98;2.65;;;17.40;99.90;;;;;;6303426;22;20019;-83
2023/07/16 01:26:17;;;;;;;11.27;2.20;;;17.40;99.90;;;;;;6276303;22;20057;-83
2023/07/16 01:28:49;;;;;;;12.85;2.83;;;17.30;99.90;;;;;;6303275;22;20026;-83
2023/07/16 01:31:17;;;;;;;8.38;2.47;;;17.30;99.90;;;;;;6275831;22;20021;-83
2023/07/16 01:33:44;;;;;;;8.93;2.35;;;17.30;99.90;;;;;;6276100;22;20015;-83
2023/07/16 01:36:14;;;;;;;9.95;2.25;;;17.30;99.90;;;;;;6303972;22;20480;-83
2023/07/16 01:38:39;;;;;;;9.85;2.47;;;17.20;99.90;;;;;;6276801;22;20023;-82
2023/07/16 01:41:05;;;;;;;9.93;2.53;;;17.30;99.90;;;;;;6275385;22;20023;-83
2023/07/16 01:43:31;;;;;;;9.65;2.35;;;17.20;99.90;;;;;;6249367;22;20008;-83
2023/07/16 01:45:56;;;;;;;10.43;2.10;;;17.20;99.90;;;;;;6302532;22;20056;-83
2023/07/16 01:48:36;;;;;;;8.85;2.22;;;17.20;99.90;;;;;;6303073;22;20050;-83
2023/07/16 01:51:03;;;;;;;11.25;3.05;;;17.10;99.90;;;;;;6301987;22;20015;-83
2023/07/16 01:53:30;;;;;;;10.43;1.95;;;17.10;99.90;;;;;;6276066;22;20442;-83
2023/07/16 01:55:56;;;;;;;7.43;2.95;;;17.10;99.90;;;;;;6275264;22;20015;-83
2023/07/16 01:58:22;;;;;;;8.25;2.17;;;17.00;99.90;;;;;;6277351;22;20019;-84
2023/07/16 02:00:49;;;;;;;7.45;2.35;;;17.00;99.90;;;;;;6303229;22;20030;-83
2023/07/16 02:03:14;;;;;;;8.30;2.22;;;17.00;99.90;;;;;;6275303;22;20090;-83
2023/07/16 02:05:40;;;;;;;9.82;2.63;;;16.90;99.90;;;;;;6304457;22;20042;-84
2023/07/16 02:08:06;;;;;;;8.88;2.20;;;16.90;99.90;;;;;;6275221;22;20451;-83
2023/07/16 02:10:32;;;;;;;7.32;2.83;;;16.90;99.90;;;;;;6301794;22;20021;-83
2023/07/16 02:12:57;;;;;;;11.40;2.88;;;16.90;99.90;;;;;;6275487;22;20083;-83
2023/07/16 02:15:23;;;;;;;8.57;2.58;;;16.90;99.90;;;;;;6304667;22;20011;-83
2023/07/16 02:17:49;;;;;;;9.55;3.25;;;16.90;99.90;;;;;;6301841;22;20384;-83
2023/07/16 02:20:14;;;;;;;9.77;2.88;;;17.00;99.90;;;;;;6273528;22;20015;-83
2023/07/16 02:22:40;;;;;;;10.63;3.15;;;17.00;99.90;;;;;;6274533;22;20465;-83
2023/07/16 02:25:06;;;;;;;10.43;3.05;;;17.00;99.90;;;;;;6272526;22;20022;-83
2023/07/16 02:27:32;;;;;;;8.40;3.08;;;17.00;99.90;;;;;;6274273;22;20011;-83
2023/07/16 02:29:58;;;;;;;9.95;3.38;;;17.00;99.90;;;;;;6274505;22;20015;-83
2023/07/16 02:32:23;;;;;;;6.80;2.72;;;17.00;99.90;;;;;;6300651;22;20019;-83
2023/07/16 02:34:49;;;;;;;9.35;2.90;;;17.00;99.90;;;;;;6274300;22;20011;-83
2023/07/16 02:37:15;;;;;;;12.25;3.72;;;17.10;99.90;;;;;;6300488;22;20011;-83
2023/07/16 02:39:42;;;;;;;11.93;3.25;;;17.10;99.90;;;;;;6300871;22;20100;-83
2023/07/16 02:42:08;;;;;;;8.18;3.20;;;17.10;99.90;;;;;;6300839;22;20064;-83
2023/07/16 02:44:38;;;;;;;11.55;3.72;;;17.10;99.90;;;;;;6274334;22;20014;-83
2023/07/16 02:47:04;;;;;;;8.80;3.15;;;17.10;99.90;;;;;;6300642;22;20442;-83
2023/07/16 02:49:29;;;;;;;8.95;3.75;;;17.10;99.90;;;;;;6302788;22;20015;-83
2023/07/16 02:51:55;;;;;;;9.35;3.03;;;17.10;99.90;;;;;;6273743;22;20449;-82
2023/07/16 02:54:21;;;;;;;11.30;3.63;;;17.10;99.90;;;;;;6273233;22;20027;-83
2023/07/16 02:56:47;;;;;;;10.88;3.97;;;17.10;99.90;;;;;;6302253;22;20636;-83
2023/07/16 02:59:13;;;;;;;10.63;3.50;;;17.10;99.90;;;;;;6273785;22;20021;-83
2023/07/16 03:01:38;;;;;;;10.25;3.95;;;17.10;99.90;;;;;;6274045;22;20361;-83
2023/07/16 03:04:04;;;;;;;15.30;3.50;;;17.10;99.90;;;;;;6274453;22;20064;-83
2023/07/16 03:06:30;;;;;;;11.75;3.22;;;17.10;99.90;;;;;;6271827;22;20023;-83
2023/07/16 03:08:55;;;;;;;12.13;3.75;;;17.10;99.90;;;;;;6271454;22;20069;-82
2023/07/16 03:11:21;;;;;;;10.45;3.67;;;17.10;99.90;;;;;;6301702;22;20114;-83
2023/07/16 03:13:47;;;;;;;11.73;3.47;;;17.10;99.90;;;;;;6276448;22;20134;-83
2023/07/16 03:16:12;;;;;;;9.20;3.25;;;17.10;99.90;;;;;;6302283;22;20019;-83
2023/07/16 03:18:38;;;;;;;13.55;4.40;;;17.10;99.90;;;;;;6302077;22;20078;-84
2023/07/16 03:21:04;;;;;;;14.40;3.60;;;17.10;99.90;;;;;;6249079;22;20007;-83
2023/07/16 03:23:30;;;;;;;11.50;3.78;;;17.10;99.90;;;;;;6274573;22;20215;-83
2023/07/16 03:25:55;;;;;;;12.20;3.53;;;17.10;99.90;;;;;;6299770;22;20094;-83
2023/07/16 03:28:21;;;;;;;14.00;3.70;;;17.10;99.90;;;;;;6301533;22;20046;-83
2023/07/16 03:30:51;;;;;;;9.52;3.28;;;17.10;99.90;;;;;;6249793;22;20011;-83
2023/07/16 03:33:17;;;;;;;14.77;4.20;;;17.00;99.90;;;;;;6274204;22;20022;-83
2023/07/16 03:35:44;;;;;;;10.73;3.30;;;17.00;99.90;;;;;;6301057;22;20003;-83
2023/07/16 03:38:10;;;;;;;11.27;3.72;;;17.00;99.90;;;;;;6274324;22;20066;-84
2023/07/16 03:40:36;;;;;;;9.70;3.90;;;17.00;99.90;;;;;;6274798;22;20019;-83
2023/07/16 03:43:02;;;;;;;9.82;3.45;;;17.00;99.90;;;;;;6301714;22;20008;-83
2023/07/16 03:45:28;;;;;;;10.48;3.88;;;17.00;99.90;;;;;;6302147;22;20083;-83
2023/07/16 03:47:53;;;;;;;10.40;3.55;;;16.90;99.90;;;;;;6301230;22;20312;-83
2023/07/16 03:50:19;;;;;;;11.57;3.78;;;17.00;99.90;;;;;;6301483;22;20075;-83
2023/07/16 03:52:45;;;;;;;12.63;3.67;;;16.90;99.90;;;;;;6274303;22;20011;-83
2023/07/16 03:55:11;;;;;;;10.15;3.60;;;16.90;99.90;;;;;;6303392;22;20320;-84
2023/07/16 03:57:37;;;;;;;7.88;3.30;;;16.90;99.90;;;;;;6248992;22;20019;-83
2023/07/16 04:00:08;;;;;;;9.40;3.65;;;16.90;99.90;;;;;;6302373;22;20079;-83
2023/07/16 04:02:34;;;;;;;11.05;3.75;;;16.90;99.90;;;;;;6302274;22;20512;-83
2023/07/16 04:05:00;;;;;;;14.23;4.43;;;16.90;99.90;;;;;;6276864;22;20023;-83
2023/07/16 04:07:26;;;;;;;12.38;4.40;;;16.90;99.90;;;;;;6275401;22;20335;-84
2023/07/16 04:09:52;;;;;;;10.05;4.05;;;16.90;99.90;;;;;;6303655;22;20056;-83
2023/07/16 04:12:18;;;;;;;16.33;4.07;;;16.90;99.90;;;;;;6302246;22;20017;-83
2023/07/16 04:14:44;;;;;;;12.30;3.83;;;16.90;99.90;;;;;;6302596;22;20432;-83
2023/07/16 04:17:09;;;;;;;16.65;4.95;;;16.90;99.90;;;;;;6274233;22;20319;-83
2023/07/16 04:19:35;;;;;;;12.43;4.43;;;16.90;99.90;;;;;;6275322;22;20501;-83
2023/07/16 04:22:01;;;;;;;15.13;4.15;;;16.90;99.90;;;;;;6273023;22;20093;-83
2023/07/16 04:24:27;;;;;;;10.38;4.30;;;16.90;99.90;;;;;;6274149;22;20015;-82
2023/07/16 04:26:57;;;;;;;8.85;4.28;;;16.90;99.90;;;;;;6300985;22;20015;-83
2023/07/16 04:29:23;;;;;;;11.27;4.03;;;16.90;99.90;;;;;;6274514;22;20401;-83
2023/07/16 04:31:49;;;;;;;12.90;4.40;;;16.90;99.90;;;;;;6273460;22;20015;-82
2023/07/16 04:34:14;;;;;;;12.07;4.70;;;16.90;99.90;;;;;;6274003;22;20339;-83
2023/07/16 04:36:42;;;;;;;11.45;4.03;;;16.90;99.90;;;;;;6274985;22;20460;-83
2023/07/16 04:39:08;;;;;;;13.32;4.10;;;16.80;99.90;;;;;;6275495;22;20060;-83
2023/07/16 04:41:33;;;;;;;10.10;4.50;;;16.80;99.90;;;;;;6303712;22;20011;-83
2023/07/16 04:43:59;;;;;;;12.55;4.65;;;16.90;99.90;;;;;;6274589;22;20011;-83
2023/07/16 04:46:25;;;;;;;12.68;4.40;;;16.90;99.90;;;;;;6303349;22;20144;-83
2023/07/16 04:48:51;;;;;;;15.23;4.30;;;16.90;99.90;;;;;;6303230;22;20016;-83
2023/07/16 04:51:16;;;;;;;15.40;4.35;;;16.90;99.90;;;;;;6303105;22;20007;-82
2023/07/16 04:53:42;;;;;;;10.32;3.85;;;16.90;99.90;;;;;;6275773;22;20023;-83
2023/07/16 04:56:12;;;;;;;13.77;5.30;;;16.90;99.90;;;;;;6275704;22;20019;-83
2023/07/16 04:58:38;;;;;;;12.55;4.18;;;16.90;99.90;;;;;;6304112;22;20606;-82
2023/07/16 05:01:04;;;;;;;15.27;4.28;;;16.90;99.90;;;;;;6304169;22;20050;-83
2023/07/16 05:03:29;;;;;;;9.52;4.05;;;16.90;99.90;;;;;;6304349;22;20011;-83
2023/07/16 05:05:55;;;;;;;13.63;4.50;;;16.90;99.90;;;;;;6304019;22;20069;-83
2023/07/16 05:08:21;;;;;;;11.57;4.10;;;16.90;99.90;;;;;;6304195;22;20022;-83
2023/07/16 05:10:47;;;;;;;12.02;3.88;;;16.90;99.90;;;;;;6304492;22;20304;-83
2023/07/16 05:13:12;;;;;;;12.68;4.18;;;16.90;99.90;;;;;;6304151;22;20080;-83
2023/07/16 05:15:38;;;;;;;13.85;4.10;;;16.90;99.90;;;;;;6303449;22;20004;-84
2023/07/16 05:18:04;;;;;;;12.68;3.83;;;16.90;99.90;;;;;;6276180;22;20446;-83
2023/07/16 05:20:30;;;;;;;14.73;3.78;;;16.90;99.90;;;;;;6277076;22;20011;-83
2023/07/16 05:22:55;;;;;;;10.57;3.88;;;16.90;99.90;;;;;;6276768;22;20021;-84
2023/07/16 05:25:21;;;;;;;11.50;3.90;;;16.90;99.90;;;;;;6278590;22;20035;-82
2023/07/16 05:27:47;;;;;;;10.70;4.03;;;16.90;99.90;;;;;;6307360;22;20015;-85
2023/07/16 05:30:13;;;;;;;13.63;4.15;;;17.00;99.90;;;;;;6278185;22;20471;-82
2023/07/16 05:32:38;;;;;;;11.50;4.15;;;17.00;99.90;;;;;;6303100;22;20369;-85
2023/07/16 05:35:04;;;;;;;9.00;3.42;;;17.00;99.90;;;;;;6302373;22;20086;-85
2023/07/16 05:37:30;;;;;;;12.30;4.65;;;17.00;99.90;;;;;;6302721;22;20462;-83
2023/07/16 05:39:56;;;;;;;10.68;3.85;;;17.00;99.90;;;;;;6250619;22;20119;-84
2023/07/16 05:42:21;;;;;;;11.52;3.58;;;17.10;99.90;;;;;;6304266;22;20003;-84
2023/07/16 05:44:48;;;;;;;11.13;3.60;;;17.10;99.90;;;;;;6304415;22;20011;-84
2023/07/16 05:47:13;;;;;;;10.07;3.90;;;17.10;99.90;;;;;;6275129;22;20039;-84
2023/07/16 05:49:39;;;;;;;8.57;3.53;;;17.10;99.90;;;;;;6275091;22;20026;-80
2023/07/16 05:52:06;;;;;;;10.38;3.40;;;17.20;99.90;;;;;;6303460;22;20019;-85
2023/07/16 05:54:31;;;;;;;9.27;3.35;;;17.20;99.90;;;;;;6277201;22;20023;-85
2023/07/16 05:56:57;;;;;;;13.80;3.88;;;17.20;99.90;;;;;;6276110;22;20451;-85
2023/07/16 05:59:23;;;;;;;10.18;3.03;;;17.30;99.90;;;;;;6277887;22;20026;-85
2023/07/16 06:01:49;;;;;;;10.57;3.80;;;17.40;99.90;;;;;;6276508;22;20019;-86
2023/07/16 06:04:14;;;;;;;8.43;3.83;;;17.30;99.90;;;;;;6303773;22;20015;-83
2023/07/16 06:06:40;;;;;;;14.57;4.20;;;17.40;99.90;;;;;;6302940;22;20019;-84
2023/07/16 06:09:06;;;;;;;10.52;3.65;;;17.40;99.90;;;;;;6251341;22;20186;-85
2023/07/16 06:11:31;;;;;;;11.20;3.75;;;17.50;99.90;;;;;;6305519;22;20011;-85
2023/07/16 06:13:59;;;;;;;13.93;3.63;;;17.60;99.90;;;;;;6275904;22;20019;-84
2023/07/16 06:16:25;;;;;;;9.05;3.70;;;17.60;99.90;;;;;;6276108;22;20042;-85
2023/07/16 06:18:51;;;;;;;10.93;3.80;;;17.70;99.90;;;;;;6275522;22;20019;-85
2023/07/16 06:21:16;;;;;;;11.10;3.58;;;17.80;99.90;;;;;;6249874;22;20023;-83
2023/07/16 06:23:42;;;;;;;13.45;4.18;;;17.90;99.90;;;;;;6276780;22;20043;-84
2023/07/16 06:26:08;;;;;;;13.50;3.92;;;17.90;99.90;;;;;;6275491;22;20019;-85
2023/07/16 06:28:34;;;;;;;9.30;3.28;;;18.00;99.90;;;;;;6275743;22;20072;-85
2023/07/16 06:30:59;;;;;;;10.43;3.95;;;18.10;99.90;;;;;;6272953;22;20015;-85
2023/07/16 06:33:27;;;;;;;10.55;3.60;;;18.10;99.90;;;;;;6300472;22;20474;-85
2023/07/16 06:35:53;;;;;;;9.85;3.97;;;18.20;99.90;;;;;;6274261;22;20076;-85
2023/07/16 06:38:18;;;;;;;12.30;3.83;;;18.20;99.90;;;;;;6274835;22;20079;-85
2023/07/16 06:40:49;;;;;;;12.20;3.58;;;18.30;99.90;;;;;;6271605;22;20589;-85
2023/07/16 06:43:15;;;;;;;12.07;4.10;;;18.40;99.90;;;;;;6300218;22;20527;-84
2023/07/16 06:45:41;;;;;;;11.27;4.18;;;18.40;99.90;;;;;;6276467;22;20011;-84
2023/07/16 06:48:07;;;;;;;11.68;3.58;;;18.40;99.90;;;;;;6303151;22;20011;-84
2023/07/16 06:50:33;;;;;;;11.20;4.10;;;18.40;99.90;;;;;;6276585;22;20117;-84
2023/07/16 06:52:58;;;;;;;11.25;4.65;;;18.40;99.90;;;;;;6303206;22;20051;-84
2023/07/16 06:55:24;;;;;;;14.30;4.40;;;18.50;99.90;;;;;;6250674;22;20026;-83
2023/07/16 06:57:50;;;;;;;11.18;4.60;;;18.50;99.90;;;;;;6275768;22;20019;-84
2023/07/16 07:00:17;;;;;;;14.55;4.13;;;18.50;99.90;;;;;;6275526;22;20019;-85
2023/07/16 07:02:43;;;;;;;12.07;5.00;;;18.50;99.90;;;;;;6302483;22;20094;-84
2023/07/16 07:05:08;;;;;;;10.40;4.72;;;18.60;99.90;;;;;;6301815;22;20019;-86
2023/07/16 07:07:34;;;;;;;10.25;4.72;;;18.60;99.90;;;;;;6275976;22;20094;-84
2023/07/16 07:10:00;;;;;;;11.15;5.00;;;18.60;99.90;;;;;;6302513;22;20048;-86
2023/07/16 07:12:26;;;;;;;13.88;4.75;;;18.60;99.90;;;;;;6275616;22;20022;-85
2023/07/16 07:14:52;;;;;;;12.48;4.68;;;18.50;99.90;;;;;;6303431;22;20004;-83
2023/07/16 07:17:18;;;;;;;14.30;4.35;;;18.50;99.90;;;;;;6274405;22;20015;-84
2023/07/16 07:19:44;;;;;;;11.48;4.85;;;18.50;99.90;;;;;;6274111;22;20019;-85
2023/07/16 07:22:10;;;;;;;12.13;4.50;;;18.60;99.90;;;;;;6275299;22;20026;-87
2023/07/16 07:24:36;;;;;;;13.18;4.68;;;18.60;99.90;;;;;;6303769;22;20041;-88
2023/07/16 07:27:02;;;;;;;14.05;4.78;;;18.70;99.90;;;;;;6302453;22;20011;-84
2023/07/16 07:29:28;;;;;;;8.35;4.10;;;18.80;99.90;;;;;;6302059;22;20033;-85
2023/07/16 07:31:54;;;;;;;9.45;3.78;;;18.80;99.90;;;;;;6274415;22;20145;-85
2023/07/16 07:34:19;;;;;;;8.98;4.13;;;19.00;99.90;;;;;;6302396;22;20464;-85
2023/07/16 07:36:45;;;;;;;11.38;4.88;;;19.10;99.90;;;;;;6302537;22;20078;-84
2023/07/16 07:39:13;;;;;;;11.30;4.05;;;19.20;99.90;;;;;;6275033;22;20015;-84
2023/07/16 07:41:39;;;;;;;9.02;4.60;;;19.20;99.90;;;;;;6274723;22;20088;-85
2023/07/16 07:44:04;;;;;;;11.60;4.75;;;19.10;99.90;;;;;;6274661;22;20018;-84
2023/07/16 07:46:30;;;;;;;10.60;5.00;;;19.10;99.90;;;;;;6303536;22;20011;-84
2023/07/16 07:48:56;;;;;;;14.00;4.57;;;19.20;99.90;;;;;;6249866;22;20315;-84
2023/07/16 07:51:22;;;;;;;9.48;4.22;;;19.40;99.90;;;;;;6275241;22;20015;-84
2023/07/16 07:53:48;;;;;;;9.60;4.13;;;19.50;99.90;;;;;;6275314;22;20015;-84
2023/07/16 07:56:16;;;;;;;10.52;4.18;;;19.50;99.90;;;;;;6303576;22;20022;-84
2023/07/16 07:58:43;;;;;;;8.82;4.30;;;19.50;99.90;;;;;;6274871;22;20084;-83
2023/07/16 08:01:09;;;;;;;10.50;4.28;;;19.50;99.90;;;;;;6302798;22;20047;-84
2023/07/16 08:03:35;;;;;;;11.13;4.05;;;19.50;99.90;;;;;;6274979;22;20011;-84
2023/07/16 08:06:01;;;;;;;11.80;4.68;;;19.50;99.90;;;;;;6275431;22;20063;-84
2023/07/16 08:08:26;;;;;;;13.18;4.57;;;19.50;99.90;;;;;;6302400;22;20015;-85
2023/07/16 08:10:53;;;;;;;12.57;4.38;;;19.50;99.90;;;;;;6274936;22;20012;-87
2023/07/16 08:13:19;;;;;;;9.65;4.03;;;19.50;99.90;;;;;;6275886;22;20042;-87
2023/07/16 08:15:44;;;;;;;11.05;4.03;;;19.40;99.90;;;;;;6278601;22;20029;-87
2023/07/16 08:18:11;;;;;;;10.88;4.70;;;19.40;99.90;;;;;;6304610;22;20029;-87
2023/07/16 08:20:37;;;;;;;13.43;4.15;;;19.40;99.90;;;;;;6249909;22;20011;-87
2023/07/16 08:23:03;;;;;;;12.00;4.72;;;19.40;99.90;;;;;;6303788;22;20066;-87
2023/07/16 08:25:29;;;;;;;11.55;4.53;;;19.40;99.90;;;;;;6276663;22;20021;-87
2023/07/16 08:27:55;;;;;;;10.57;3.80;;;19.40;99.90;;;;;;6272761;22;20080;-89
2023/07/16 08:30:23;;;;;;;8.75;3.83;;;19.40;99.90;;;;;;6303698;22;20094;-88
2023/07/16 08:32:49;;;;;;;14.85;4.05;;;19.40;99.90;;;;;;6303895;22;20096;-87
2023/07/16 08:35:16;;;;;;;11.45;5.05;;;19.50;99.90;;;;;;6305934;22;20018;-87
2023/07/16 08:37:46;;;;;;;12.15;4.80;;;19.60;99.90;;;;;;6278783;22;20050;-86
2023/07/16 08:40:12;;;;;;;10.55;4.20;;;19.60;99.90;;;;;;6305357;22;20022;-87
2023/07/16 08:42:39;;;;;;;12.30;4.07;;;19.60;99.90;;;;;;6305916;22;20066;-86
2023/07/16 08:45:10;;;;;;;13.15;4.68;;;19.60;99.90;;;;;;6279658;22;20030;-87
2023/07/16 08:47:39;;;;;;;13.20;4.13;;;19.60;99.90;;;;;;6305720;22;20068;-86
2023/07/16 08:50:05;;;;;;;11.35;4.20;;;19.70;99.90;;;;;;6276709;22;20141;-89
2023/07/16 08:52:31;;;;;;;8.07;4.10;;;19.80;99.90;;;;;;6306936;22;20326;-88
2023/07/16 08:54:57;;;;;;;9.43;4.03;;;19.80;99.90;;;;;;6304707;22;20481;-86
2023/07/16 08:57:23;;;;;;;10.57;4.43;;;19.90;99.90;;;;;;6303354;22;20019;-84
2023/07/16 08:59:50;;;;;;;9.32;4.18;;;20.10;99.90;;;;;;6276636;22;20082;-84
2023/07/16 09:02:20;;;;;;;12.90;4.47;;;20.30;99.90;;;;;;6275179;22;20019;-84
2023/07/16 09:04:51;;;;;;;12.05;4.18;;;20.50;99.90;;;;;;6274214;22;20022;-84
2023/07/16 09:07:16;;;;;;;14.65;4.32;;;20.70;99.90;;;;;;6301433;22;20015;-84
2023/07/16 09:09:42;;;;;;;9.85;3.90;;;20.80;99.90;;;;;;6273362;22;20369;-84
2023/07/16 09:12:14;;;;;;;11.77;4.10;;;20.90;99.90;;;;;;6273534;22;20098;-84
2023/07/16 09:14:43;;;;;;;10.80;4.40;;;20.90;99.90;;;;;;6275183;22;20011;-83
2023/07/16 09:17:09;;;;;;;12.73;4.53;;;20.90;99.90;;;;;;6274131;22;20090;-85
2023/07/16 09:19:36;;;;;;;9.55;4.28;;;20.80;99.90;;;;;;6302503;22;20266;-83
2023/07/16 09:22:02;;;;;;;9.27;4.82;;;20.80;99.90;;;;;;6274572;22;20027;-84
2023/07/16 09:24:29;;;;;;;10.32;4.20;;;20.80;99.90;;;;;;6277468;22;20102;-85
2023/07/16 09:26:55;;;;;;;8.95;3.92;;;20.80;99.90;;;;;;6303171;22;20023;-83
2023/07/16 09:29:21;;;;;;;12.23;4.32;;;20.70;99.90;;;;;;6251393;22;20011;-84
2023/07/16 09:32:14;;;;;;;9.32;3.67;;;20.70;99.90;;;;;;6304685;22;20043;-84
2023/07/16 09:34:40;;;;;;;12.90;4.25;;;20.70;99.90;;;;;;6297212;22;20047;-84
2023/07/16 09:37:06;;;;;;;7.82;4.28;;;20.60;99.90;;;;;;6250408;22;20023;-85
2023/07/16 09:39:33;;;;;;;9.93;3.63;;;20.60;99.90;;;;;;6275076;22;20060;-84
2023/07/16 09:41:59;;;;;;;9.00;3.97;;;20.60;99.90;;;;;;6275309;22;20496;-85
2023/07/16 09:44:24;;;;;;;11.93;4.00;;;20.60;99.90;;;;;;6276948;22;20015;-85
2023/07/16 09:46:50;;;;;;;12.75;3.70;;;20.60;99.90;;;;;;6250448;22;20094;-84
2023/07/16 09:49:16;;;;;;;10.93;3.83;;;20.70;99.90;;;;;;6248953;22;20007;-84
2023/07/16 09:51:43;;;;;;;12.13;4.03;;;20.80;99.90;;;;;;6275072;22;20014;-83
2023/07/16 09:54:14;;;;;;;11.23;3.95;;;20.90;99.90;;;;;;6248407;22;20015;-90
2023/07/16 09:56:48;;;;;;;10.80;4.15;;;20.90;99.90;;;;;;6277770;22;20342;-90
2023/07/16 09:59:16;;;;;;;18.02;4.43;;;20.90;99.90;;;;;;6279841;22;20007;-90
2023/07/16 10:01:42;;;;;;;11.43;4.25;;;20.90;99.90;;;;;;6279879;22;20076;-88
2023/07/16 10:04:18;;;;;;;10.00;3.88;;;20.90;99.90;;;;;;6306238;22;20052;-88
2023/07/16 10:06:54;;;;;;;9.80;4.20;;;20.90;99.90;;;;;;6306952;22;20067;-87
2023/07/16 10:09:40;;;;;;;9.13;3.80;;;20.80;99.90;;;;;;6279324;22;20099;-90
2023/07/16 10:12:15;;;;;;;8.57;4.22;;;20.80;99.90;;;;;;6307300;22;20100;-88
2023/07/16 10:14:41;;;;;;;12.93;4.00;;;20.70;99.90;;;;;;6278502;22;20080;-87
2023/07/16 10:17:06;;;;;;;7.00;4.22;;;20.60;99.90;;;;;;6305042;22;20015;-86
2023/07/16 10:19:49;;;;;;;9.15;4.45;;;20.70;99.90;;;;;;6274926;22;20022;-84
2023/07/16 10:22:15;;;;;;;10.43;4.10;;;20.70;99.90;;;;;;6274294;22;20015;-84
2023/07/16 10:24:41;;;;;;;8.07;4.00;;;20.70;99.90;;;;;;6246820;22;20182;-84
2023/07/16 10:27:07;;;;;;;10.13;4.65;;;20.60;99.90;;;;;;6271981;22;20012;-84
2023/07/16 10:29:33;;;;;;;10.48;5.05;;;20.70;99.90;;;;;;6272846;22;20026;-84
2023/07/16 10:31:58;;;;;;;11.80;4.82;;;20.80;99.90;;;;;;6247812;22;20062;-83
2023/07/16 10:34:26;;;;;;;11.13;4.20;;;20.90;99.90;;;;;;6275331;22;20858;-85
2023/07/16 10:36:51;;;;;;;9.57;4.35;;;20.90;99.90;;;;;;6274907;22;20015;-84
2023/07/16 10:39:17;;;;;;;12.75;4.35;;;21.10;99.90;;;;;;6300986;22;20017;-85
2023/07/16 10:41:43;;;;;;;12.05;4.93;;;21.20;99.90;;;;;;6276217;22;20321;-84
2023/07/16 10:44:09;;;;;;;8.73;4.20;;;21.20;99.90;;;;;;6302041;22;20056;-84
2023/07/16 10:46:36;;;;;;;8.63;4.13;;;21.20;99.90;;;;;;6274545;22;20064;-84
2023/07/16 10:49:02;;;;;;;7.50;4.10;;;21.20;99.90;;;;;;6302013;22;20022;-83
2023/07/16 10:51:28;;;;;;;11.43;3.80;;;21.10;99.90;;;;;;6248850;22;20069;-84
2023/07/16 10:53:57;;;;;;;9.52;3.97;;;21.10;99.90;;;;;;6300180;22;20199;-84
2023/07/16 10:56:23;;;;;;;10.65;4.25;;;21.10;99.90;;;;;;6273591;22;20098;-86
2023/07/16 10:58:49;;;;;;;11.15;4.05;;;21.10;99.80;;;;;;6273998;22;20249;-86
2023/07/16 11:01:15;;;;;;;12.85;4.00;;;21.10;99.90;;;;;;6275921;22;20446;-89
2023/07/16 11:03:41;;;;;;;9.88;3.78;;;21.10;99.90;;;;;;6275306;22;20016;-87
2023/07/16 11:06:08;;;;;;;11.38;3.83;;;21.20;99.90;;;;;;6250938;22;20315;-85
2023/07/16 11:08:34;;;;;;;10.77;4.15;;;21.10;99.90;;;;;;6274336;22;20087;-85
2023/07/16 11:11:00;;;;;;;9.68;3.78;;;21.10;99.90;;;;;;6274448;22;20043;-88
2023/07/16 11:13:30;;;;;;;7.40;3.40;;;21.10;99.90;;;;;;6302934;22;20007;-85
2023/07/16 11:15:56;;;;;;;7.95;3.53;;;21.20;99.90;;;;;;6306393;22;20060;-85
2023/07/16 11:18:26;;;;;;;9.27;3.10;;;21.30;99.90;;;;;;6278205;22;20046;-86
2023/07/16 11:20:53;;;;;;;6.63;3.25;;;21.50;99.80;;;;;;6305688;22;20530;-85
2023/07/16 11:23:19;;;;;;;9.52;3.25;;;21.50;99.60;;;;;;6279588;22;20042;-87
2023/07/16 11:25:48;;;;;;;8.93;3.70;;;21.50;99.70;;;;;;6310868;22;20011;-89
2023/07/16 11:28:14;;;;;;;8.68;3.30;;;21.40;99.70;;;;;;6282233;22;20007;-88
2023/07/16 11:30:40;;;;;;;8.45;4.07;;;21.40;99.80;;;;;;6256068;22;20027;-88
2023/07/16 11:33:12;;;;;;;8.05;3.58;;;21.40;99.90;;;;;;6282175;22;20090;-92
2023/07/16 11:35:39;;;;;;;10.07;4.00;;;21.40;99.50;;;;;;6283145;22;20015;-89
2023/07/16 11:38:05;;;;;;;8.35;3.75;;;21.30;99.40;;;;;;6281146;22;20373;-89
2023/07/16 11:40:35;;;;;;;9.15;3.42;;;21.20;99.70;;;;;;6280652;22;20015;-89
2023/07/16 11:43:11;;;;;;;12.23;4.10;;;21.20;99.80;;;;;;6280343;22;20019;-89
2023/07/16 11:45:37;;;;;;;12.38;3.40;;;21.10;99.60;;;;;;6257994;22;20011;-88
2023/07/16 11:48:03;;;;;;;12.00;3.90;;;21.00;99.70;;;;;;6252575;22;20015;-89
2023/07/16 11:50:29;;;;;;;11.02;3.80;;;20.90;99.80;;;;;;6279388;22;20042;-89
2023/07/16 11:52:59;;;;;;;10.48;4.03;;;20.80;99.80;;;;;;6277403;22;20011;-88
2023/07/16 11:55:24;;;;;;;10.77;4.25;;;20.70;99.90;;;;;;6278963;22;20023;-90
2023/07/16 11:57:50;;;;;;;13.88;4.65;;;20.70;99.90;;;;;;6278390;22;20026;-88
2023/07/16 12:00:25;;;;;;;11.00;4.05;;;20.70;99.90;;;;;;6250089;22;20013;-89
2023/07/16 12:02:51;;;;;;;10.07;4.05;;;20.70;99.90;;;;;;6278976;22;20019;-89
2023/07/16 12:05:21;;;;;;;13.57;4.60;;;20.80;99.90;;;;;;6279890;22;20022;-88
2023/07/16 12:07:47;;;;;;;8.07;4.25;;;20.90;99.90;;;;;;6256535;22;20434;-89
2023/07/16 12:10:12;;;;;;;9.60;3.75;;;21.00;99.90;;;;;;6308587;22;20037;-89
2023/07/16 12:12:38;;;;;;;10.20;5.20;;;21.10;99.90;;;;;;6256048;22;20442;-90
2023/07/16 12:15:08;;;;;;;11.10;4.22;;;21.10;99.90;;;;;;6280943;22;20059;-90
2023/07/16 12:17:33;;;;;;;9.60;3.97;;;21.10;99.90;;;;;;6281628;22;20015;-90
2023/07/16 12:20:00;;;;;;;11.20;4.47;;;21.20;99.90;;;;;;6255409;22;20034;-90
2023/07/16 12:22:25;;;;;;;9.15;4.05;;;21.20;99.90;;;;;;6256361;22;20053;-89
2023/07/16 12:24:51;;;;;;;10.65;3.80;;;21.10;99.90;;;;;;6280745;22;20094;-90
2023/07/16 12:27:18;;;;;;;11.10;4.25;;;21.10;99.90;;;;;;6281858;22;20450;-90
2023/07/16 12:29:44;;;;;;;11.98;4.30;;;21.10;99.90;;;;;;6282758;22;20011;-90
2023/07/16 12:32:10;;;;;;;9.05;4.35;;;21.20;99.90;;;;;;6282376;22;20018;-88
2023/07/16 12:34:35;;;;;;;7.95;3.88;;;21.30;99.90;;;;;;6283155;22;20188;-89
2023/07/16 12:37:01;;;;;;;9.80;3.53;;;21.40;99.90;;;;;;6279115;22;20345;-85
2023/07/16 12:39:27;;;;;;;9.70;4.22;;;21.40;99.90;;;;;;6303650;22;20446;-86